sensor_id;sensor_type;location;lat;lon;timestamp;P1;durP1;ratioP1;P2;durP2;ratioP2
4428;SDS011;2227;47.810;8.810;2024-03-22T04:49:47;753.75;;;625.53;;
4428;SDS011;2227;47.810;8.810;2024-03-22T04:52:13;752.88;;;625.05;;
4428;SDS011;2227;47.810;8.810;2024-03-22T04:54:39;749.78;;;625.05;;
4428;SDS011;2227;47.810;8.810;2024-03-22T04:57:05;750.83;;;624.13;;
4428;SDS011;2227;47.810;8.810;2024-03-22T04:59:30;753.20;;;625.30;;
4428;SDS011;2227;47.810;8.810;2024-03-22T05:01:56;753.63;;;630.33;;
4428;SDS011;2227;47.810;8.810;2024-03-22T05:04:22;751.30;;;629.85;;
4428;SDS011;2227;47.810;8.810;2024-03-22T05:06:48;752.67;;;631.53;;
4428;SDS011;2227;47.810;8.810;2024-03-22T05:09:13;752.83;;;627.30;;
4428;SDS011;2227;47.810;8.810;2024-03-22T05:11:39;752.05;;;625.95;;
4428;SDS011;2227;47.810;8.810;2024-03-22T05:14:05;751.08;;;627.65;;
4428;SDS011;2227;47.810;8.810;2024-03-22T05:16:31;751.50;;;631.67;;
4428;SDS011;2227;47.810;8.810;2024-03-22T05:18:56;751.65;;;628.55;;
4428;SDS011;2227;47.810;8.810;2024-03-22T05:21:22;752.35;;;628.60;;
4428;SDS011;2227;47.810;8.810;2024-03-22T05:23:48;749.83;;;623.67;;
4428;SDS011;2227;47.810;8.810;2024-03-22T05:26:14;758.35;;;626.55;;
4428;SDS011;2227;47.810;8.810;2024-03-22T05:28:40;756.45;;;635.00;;
4428;SDS011;2227;47.810;8.810;2024-03-22T05:31:05;754.83;;;628.00;;
4428;SDS011;2227;47.810;8.810;2024-03-22T05:33:31;752.45;;;623.63;;
4428;SDS011;2227;47.810;8.810;2024-03-22T05:35:57;752.17;;;627.50;;
4428;SDS011;2227;47.810;8.810;2024-03-22T05:38:24;752.38;;;627.30;;
4428;SDS011;2227;47.810;8.810;2024-03-22T05:40:50;752.55;;;629.88;;
4428;SDS011;2227;47.810;8.810;2024-03-22T05:43:16;750.45;;;628.22;;
4428;SDS011;2227;47.810;8.810;2024-03-22T05:45:42;749.63;;;629.88;;
4428;SDS011;2227;47.810;8.810;2024-03-22T05:48:07;747.60;;;626.85;;
4428;SDS011;2227;47.810;8.810;2024-03-22T05:50:33;748.90;;;626.60;;
4428;SDS011;2227;47.810;8.810;2024-03-22T05:52:59;751.15;;;623.50;;
4428;SDS011;2227;47.810;8.810;2024-03-22T05:55:25;751.53;;;629.03;;
4428;SDS011;2227;47.810;8.810;2024-03-22T05:57:52;749.55;;;628.85;;
4428;SDS011;2227;47.810;8.810;2024-03-22T06:00:18;750.63;;;623.83;;
4428;SDS011;2227;47.810;8.810;2024-03-22T06:02:44;752.75;;;625.40;;
4428;SDS011;2227;47.810;8.810;2024-03-22T06:05:10;749.60;;;626.85;;
4428;SDS011;2227;47.810;8.810;2024-03-22T06:07:36;752.15;;;630.65;;
4428;SDS011;2227;47.810;8.810;2024-03-22T06:10:07;749.75;;;632.47;;
4428;SDS011;2227;47.810;8.810;2024-03-22T06:12:35;750.92;;;646.17;;
4428;SDS011;2227;47.810;8.810;2024-03-22T06:15:01;758.10;;;654.10;;
4428;SDS011;2227;47.810;8.810;2024-03-22T06:17:32;758.97;;;655.05;;
4428;SDS011;2227;47.810;8.810;2024-03-22T06:19:59;759.80;;;662.25;;
4428;SDS011;2227;47.810;8.810;2024-03-22T06:22:25;765.05;;;667.50;;
4428;SDS011;2227;47.810;8.810;2024-03-22T06:24:51;762.30;;;663.00;;
4428;SDS011;2227;47.810;8.810;2024-03-22T06:27:18;758.22;;;661.92;;
4428;SDS011;2227;47.810;8.810;2024-03-22T06:29:44;756.73;;;663.00;;
4428;SDS011;2227;47.810;8.810;2024-03-22T06:32:10;755.22;;;666.67;;
4428;SDS011;2227;47.810;8.810;2024-03-22T06:34:35;756.08;;;671.65;;
4428;SDS011;2227;47.810;8.810;2024-03-22T06:37:08;758.20;;;664.03;;
4428;SDS011;2227;47.810;8.810;2024-03-22T06:39:34;760.83;;;671.03;;
4428;SDS011;2227;47.810;8.810;2024-03-22T06:41:59;760.97;;;668.60;;
4428;SDS011;2227;47.810;8.810;2024-03-22T06:44:25;760.88;;;666.33;;
4428;SDS011;2227;47.810;8.810;2024-03-22T06:46:51;759.50;;;664.30;;
4428;SDS011;2227;47.810;8.810;2024-03-22T06:49:17;757.50;;;669.00;;
4428;SDS011;2227;47.810;8.810;2024-03-22T06:51:43;764.25;;;680.05;;
4428;SDS011;2227;47.810;8.810;2024-03-22T06:54:09;761.60;;;677.37;;
4428;SDS011;2227;47.810;8.810;2024-03-22T06:56:35;754.47;;;670.78;;
4428;SDS011;2227;47.810;8.810;2024-03-22T06:59:00;756.10;;;672.78;;
4428;SDS011;2227;47.810;8.810;2024-03-22T07:01:26;756.30;;;672.83;;
4428;SDS011;2227;47.810;8.810;2024-03-22T07:03:52;755.03;;;671.80;;
4428;SDS011;2227;47.810;8.810;2024-03-22T07:06:18;757.47;;;674.07;;
4428;SDS011;2227;47.810;8.810;2024-03-22T07:08:44;757.15;;;674.35;;
4428;SDS011;2227;47.810;8.810;2024-03-22T07:11:09;759.92;;;676.92;;
4428;SDS011;2227;47.810;8.810;2024-03-22T07:13:35;761.35;;;678.60;;
4428;SDS011;2227;47.810;8.810;2024-03-22T07:16:03;768.13;;;685.37;;
4428;SDS011;2227;47.810;8.810;2024-03-22T07:18:29;774.00;;;691.38;;
4428;SDS011;2227;47.810;8.810;2024-03-22T07:20:55;767.45;;;684.90;;
4428;SDS011;2227;47.810;8.810;2024-03-22T07:23:23;780.83;;;698.22;;
4428;SDS011;2227;47.810;8.810;2024-03-22T07:25:48;778.97;;;696.83;;
4428;SDS011;2227;47.810;8.810;2024-03-22T07:28:14;789.15;;;706.50;;
4428;SDS011;2227;47.810;8.810;2024-03-22T07:30:41;789.10;;;706.72;;
4428;SDS011;2227;47.810;8.810;2024-03-22T07:33:07;808.63;;;725.78;;
4428;SDS011;2227;47.810;8.810;2024-03-22T07:35:35;810.27;;;727.27;;
4428;SDS011;2227;47.810;8.810;2024-03-22T07:38:00;819.47;;;735.80;;
4428;SDS011;2227;47.810;8.810;2024-03-22T07:40:26;821.80;;;738.13;;
4428;SDS011;2227;47.810;8.810;2024-03-22T07:42:52;822.08;;;738.72;;
4428;SDS011;2227;47.810;8.810;2024-03-22T07:45:18;829.47;;;745.85;;
4428;SDS011;2227;47.810;8.810;2024-03-22T07:47:44;828.87;;;745.10;;
4428;SDS011;2227;47.810;8.810;2024-03-22T07:50:10;837.87;;;754.07;;
4428;SDS011;2227;47.810;8.810;2024-03-22T07:52:35;835.78;;;751.63;;
4428;SDS011;2227;47.810;8.810;2024-03-22T07:55:01;840.53;;;756.33;;
4428;SDS011;2227;47.810;8.810;2024-03-22T07:57:28;874.45;;;789.45;;
4428;SDS011;2227;47.810;8.810;2024-03-22T07:59:56;877.72;;;792.72;;
4428;SDS011;2227;47.810;8.810;2024-03-22T08:02:23;880.58;;;796.17;;
4428;SDS011;2227;47.810;8.810;2024-03-22T08:04:49;878.95;;;795.20;;
4428;SDS011;2227;47.810;8.810;2024-03-22T08:07:15;908.90;;;823.97;;
4428;SDS011;2227;47.810;8.810;2024-03-22T08:09:40;909.45;;;825.72;;
4428;SDS011;2227;47.810;8.810;2024-03-22T08:12:06;928.90;;;845.10;;
4428;SDS011;2227;47.810;8.810;2024-03-22T08:14:33;948.53;;;865.45;;
4428;SDS011;2227;47.810;8.810;2024-03-22T08:16:59;980.25;;;896.92;;
4428;SDS011;2227;47.810;8.810;2024-03-22T08:19:24;978.88;;;895.88;;
4428;SDS011;2227;47.810;8.810;2024-03-22T08:21:50;986.15;;;904.13;;
4428;SDS011;2227;47.810;8.810;2024-03-22T08:24:17;996.20;;;914.60;;
4428;SDS011;2227;47.810;8.810;2024-03-22T08:26:44;1038.75;;;956.67;;
4428;SDS011;2227;47.810;8.810;2024-03-22T08:29:12;1049.10;;;967.10;;
4428;SDS011;2227;47.810;8.810;2024-03-22T08:31:40;1048.70;;;967.13;;
4428;SDS011;2227;47.810;8.810;2024-03-22T08:34:06;1048.80;;;967.58;;
4428;SDS011;2227;47.810;8.810;2024-03-22T08:36:33;1051.78;;;969.90;;
4428;SDS011;2227;47.810;8.810;2024-03-22T08:38:58;1053.40;;;971.45;;
4428;SDS011;2227;47.810;8.810;2024-03-22T08:41:24;1053.00;;;972.00;;
4428;SDS011;2227;47.810;8.810;2024-03-22T08:43:52;1057.75;;;976.17;;
4428;SDS011;2227;47.810;8.810;2024-03-22T08:46:18;1056.47;;;975.50;;
4428;SDS011;2227;47.810;8.810;2024-03-22T08:48:46;1061.85;;;981.17;;
4428;SDS011;2227;47.810;8.810;2024-03-22T08:51:12;1065.55;;;984.92;;
4428;SDS011;2227;47.810;8.810;2024-03-22T08:53:38;1090.10;;;999.90;;
4428;SDS011;2227;47.810;8.810;2024-03-22T08:56:06;1108.85;;;999.90;;
4428;SDS011;2227;47.810;8.810;2024-03-22T08:58:33;1111.20;;;999.90;;
4428;SDS011;2227;47.810;8.810;2024-03-22T09:00:59;1113.50;;;999.90;;
4428;SDS011;2227;47.810;8.810;2024-03-22T09:03:25;1109.32;;;999.90;;
4428;SDS011;2227;47.810;8.810;2024-03-22T09:05:54;1114.57;;;999.90;;
4428;SDS011;2227;47.810;8.810;2024-03-22T09:08:20;1110.53;;;999.90;;
4428;SDS011;2227;47.810;8.810;2024-03-22T09:10:47;1112.82;;;999.90;;
4428;SDS011;2227;47.810;8.810;2024-03-22T09:13:13;1108.85;;;999.90;;
4428;SDS011;2227;47.810;8.810;2024-03-22T09:15:39;1087.20;;;999.90;;
4428;SDS011;2227;47.810;8.810;2024-03-22T09:18:05;1078.45;;;994.42;;
4428;SDS011;2227;47.810;8.810;2024-03-22T09:20:31;1068.53;;;985.42;;
4428;SDS011;2227;47.810;8.810;2024-03-22T09:22:57;1078.32;;;992.90;;
4428;SDS011;2227;47.810;8.810;2024-03-22T09:25:23;1071.13;;;987.13;;
4428;SDS011;2227;47.810;8.810;2024-03-22T09:27:49;1073.40;;;987.55;;
4428;SDS011;2227;47.810;8.810;2024-03-22T09:30:15;1066.40;;;983.13;;
4428;SDS011;2227;47.810;8.810;2024-03-22T09:32:41;1070.32;;;986.65;;
4428;SDS011;2227;47.810;8.810;2024-03-22T09:35:08;1068.32;;;985.65;;
4428;SDS011;2227;47.810;8.810;2024-03-22T09:37:34;1073.32;;;989.88;;
4428;SDS011;2227;47.810;8.810;2024-03-22T09:40:01;1094.45;;;999.90;;
4428;SDS011;2227;47.810;8.810;2024-03-22T09:42:32;1111.28;;;999.90;;
4428;SDS011;2227;47.810;8.810;2024-03-22T09:44:58;1115.70;;;999.90;;
4428;SDS011;2227;47.810;8.810;2024-03-22T09:47:25;1117.68;;;999.90;;
4428;SDS011;2227;47.810;8.810;2024-03-22T09:49:52;1114.40;;;999.90;;
4428;SDS011;2227;47.810;8.810;2024-03-22T09:52:19;1117.97;;;999.90;;
4428;SDS011;2227;47.810;8.810;2024-03-22T09:54:46;1116.25;;;999.90;;
4428;SDS011;2227;47.810;8.810;2024-03-22T09:57:13;1116.72;;;999.90;;
4428;SDS011;2227;47.810;8.810;2024-03-22T09:59:43;1112.43;;;999.90;;
4428;SDS011;2227;47.810;8.810;2024-03-22T10:02:13;1107.07;;;999.90;;
4428;SDS011;2227;47.810;8.810;2024-03-22T10:04:42;1107.07;;;999.90;;
4428;SDS011;2227;47.810;8.810;2024-03-22T10:07:08;1106.70;;;999.90;;
4428;SDS011;2227;47.810;8.810;2024-03-22T10:09:35;1113.97;;;999.90;;
4428;SDS011;2227;47.810;8.810;2024-03-22T10:12:02;1114.30;;;999.90;;
4428;SDS011;2227;47.810;8.810;2024-03-22T10:14:29;1111.47;;;999.90;;
4428;SDS011;2227;47.810;8.810;2024-03-22T10:16:56;1116.88;;;999.90;;
4428;SDS011;2227;47.810;8.810;2024-03-22T10:19:23;1116.90;;;999.90;;
4428;SDS011;2227;47.810;8.810;2024-03-22T10:22:04;1090.57;;;999.90;;
4428;SDS011;2227;47.810;8.810;2024-03-22T10:24:33;1086.68;;;999.90;;
4428;SDS011;2227;47.810;8.810;2024-03-22T10:26:59;1085.50;;;999.90;;
4428;SDS011;2227;47.810;8.810;2024-03-22T10:29:25;1094.43;;;999.90;;
4428;SDS011;2227;47.810;8.810;2024-03-22T10:31:52;1080.95;;;997.22;;
4428;SDS011;2227;47.810;8.810;2024-03-22T10:34:20;1077.60;;;993.65;;
4428;SDS011;2227;47.810;8.810;2024-03-22T10:36:46;1087.03;;;999.90;;
4428;SDS011;2227;47.810;8.810;2024-03-22T10:39:13;1111.63;;;999.90;;
4428;SDS011;2227;47.810;8.810;2024-03-22T10:41:44;1116.43;;;999.90;;
4428;SDS011;2227;47.810;8.810;2024-03-22T10:44:10;1118.82;;;999.90;;
4428;SDS011;2227;47.810;8.810;2024-03-22T10:46:38;1124.28;;;999.90;;
4428;SDS011;2227;47.810;8.810;2024-03-22T10:49:08;1119.13;;;999.90;;
4428;SDS011;2227;47.810;8.810;2024-03-22T10:51:36;1118.72;;;999.90;;
4428;SDS011;2227;47.810;8.810;2024-03-22T10:54:02;1116.80;;;999.90;;
4428;SDS011;2227;47.810;8.810;2024-03-22T10:56:30;1126.23;;;999.90;;
4428;SDS011;2227;47.810;8.810;2024-03-22T10:58:56;1117.87;;;999.90;;
4428;SDS011;2227;47.810;8.810;2024-03-22T11:01:22;1122.15;;;999.90;;
4428;SDS011;2227;47.810;8.810;2024-03-22T11:03:50;1115.50;;;999.90;;
4428;SDS011;2227;47.810;8.810;2024-03-22T11:06:20;1115.77;;;999.90;;
4428;SDS011;2227;47.810;8.810;2024-03-22T11:08:50;1113.47;;;999.90;;
4428;SDS011;2227;47.810;8.810;2024-03-22T11:11:17;1118.23;;;999.90;;
4428;SDS011;2227;47.810;8.810;2024-03-22T11:13:46;1114.88;;;999.90;;
4428;SDS011;2227;47.810;8.810;2024-03-22T11:16:15;1111.97;;;999.90;;
4428;SDS011;2227;47.810;8.810;2024-03-22T11:18:42;1114.10;;;999.90;;
4428;SDS011;2227;47.810;8.810;2024-03-22T11:21:08;1111.32;;;999.90;;
4428;SDS011;2227;47.810;8.810;2024-03-22T11:23:34;1111.97;;;999.90;;
4428;SDS011;2227;47.810;8.810;2024-03-22T11:26:02;1109.82;;;999.90;;
4428;SDS011;2227;47.810;8.810;2024-03-22T11:28:29;1081.05;;;996.58;;
4428;SDS011;2227;47.810;8.810;2024-03-22T11:30:56;1077.30;;;992.35;;
4428;SDS011;2227;47.810;8.810;2024-03-22T11:33:22;1068.77;;;984.73;;
4428;SDS011;2227;47.810;8.810;2024-03-22T11:35:48;1074.32;;;990.50;;
4428;SDS011;2227;47.810;8.810;2024-03-22T11:38:15;1070.25;;;985.40;;
4428;SDS011;2227;47.810;8.810;2024-03-22T11:40:42;1076.40;;;989.67;;
4428;SDS011;2227;47.810;8.810;2024-03-22T11:43:09;1067.70;;;981.90;;
4428;SDS011;2227;47.810;8.810;2024-03-22T11:45:36;1066.37;;;981.17;;
4428;SDS011;2227;47.810;8.810;2024-03-22T11:48:02;1066.70;;;981.60;;
4428;SDS011;2227;47.810;8.810;2024-03-22T11:50:29;1062.30;;;979.00;;
4428;SDS011;2227;47.810;8.810;2024-03-22T11:52:54;1083.75;;;999.55;;
4428;SDS011;2227;47.810;8.810;2024-03-22T11:55:21;1073.88;;;989.78;;
4428;SDS011;2227;47.810;8.810;2024-03-22T11:57:48;1066.28;;;982.83;;
4428;SDS011;2227;47.810;8.810;2024-03-22T12:00:14;1066.68;;;983.20;;
4428;SDS011;2227;47.810;8.810;2024-03-22T12:02:43;1068.55;;;984.22;;
4428;SDS011;2227;47.810;8.810;2024-03-22T12:05:09;1063.88;;;980.20;;
4428;SDS011;2227;47.810;8.810;2024-03-22T12:07:35;1063.43;;;979.45;;
4428;SDS011;2227;47.810;8.810;2024-03-22T12:10:01;1062.72;;;978.92;;
4428;SDS011;2227;47.810;8.810;2024-03-22T12:12:28;1069.45;;;984.75;;
4428;SDS011;2227;47.810;8.810;2024-03-22T12:14:55;1063.00;;;978.90;;
4428;SDS011;2227;47.810;8.810;2024-03-22T12:17:21;1058.13;;;974.80;;
4428;SDS011;2227;47.810;8.810;2024-03-22T12:19:46;1058.97;;;974.17;;
4428;SDS011;2227;47.810;8.810;2024-03-22T12:22:13;1056.80;;;973.72;;
4428;SDS011;2227;47.810;8.810;2024-03-22T12:24:38;1060.47;;;976.60;;
4428;SDS011;2227;47.810;8.810;2024-03-22T12:27:04;1062.60;;;978.20;;
4428;SDS011;2227;47.810;8.810;2024-03-22T12:29:34;1062.32;;;978.30;;
4428;SDS011;2227;47.810;8.810;2024-03-22T12:32:00;1063.15;;;977.80;;
4428;SDS011;2227;47.810;8.810;2024-03-22T12:34:29;1058.30;;;973.83;;
4428;SDS011;2227;47.810;8.810;2024-03-22T12:36:55;1051.50;;;968.40;;
4428;SDS011;2227;47.810;8.810;2024-03-22T12:39:21;1056.95;;;972.38;;
4428;SDS011;2227;47.810;8.810;2024-03-22T12:41:47;1055.27;;;971.70;;
4428;SDS011;2227;47.810;8.810;2024-03-22T12:44:13;1060.23;;;975.53;;
4428;SDS011;2227;47.810;8.810;2024-03-22T12:46:39;1063.30;;;976.70;;
4428;SDS011;2227;47.810;8.810;2024-03-22T12:49:07;1051.47;;;965.47;;
4428;SDS011;2227;47.810;8.810;2024-03-22T12:51:34;1041.78;;;957.03;;
4428;SDS011;2227;47.810;8.810;2024-03-22T12:54:01;1045.03;;;960.13;;
4428;SDS011;2227;47.810;8.810;2024-03-22T12:56:27;1045.30;;;960.97;;
4428;SDS011;2227;47.810;8.810;2024-03-22T12:58:53;1042.40;;;958.60;;
4428;SDS011;2227;47.810;8.810;2024-03-22T13:01:18;1044.43;;;960.37;;
4428;SDS011;2227;47.810;8.810;2024-03-22T13:03:44;1047.93;;;964.03;;
4428;SDS011;2227;47.810;8.810;2024-03-22T13:06:10;1049.90;;;965.80;;
4428;SDS011;2227;47.810;8.810;2024-03-22T13:08:36;1049.70;;;965.13;;
4428;SDS011;2227;47.810;8.810;2024-03-22T13:11:01;1044.70;;;960.30;;
4428;SDS011;2227;47.810;8.810;2024-03-22T13:13:27;1047.17;;;962.97;;
4428;SDS011;2227;47.810;8.810;2024-03-22T13:15:56;1045.78;;;960.85;;
4428;SDS011;2227;47.810;8.810;2024-03-22T13:18:23;1041.72;;;957.17;;
4428;SDS011;2227;47.810;8.810;2024-03-22T13:20:49;1040.05;;;956.85;;
4428;SDS011;2227;47.810;8.810;2024-03-22T13:23:15;1047.38;;;964.28;;
4428;SDS011;2227;47.810;8.810;2024-03-22T13:25:41;1051.63;;;968.38;;
4428;SDS011;2227;47.810;8.810;2024-03-22T13:28:06;1054.07;;;970.88;;
4428;SDS011;2227;47.810;8.810;2024-03-22T13:30:32;1050.87;;;968.40;;
4428;SDS011;2227;47.810;8.810;2024-03-22T13:33:00;1059.18;;;975.47;;
4428;SDS011;2227;47.810;8.810;2024-03-22T13:35:26;1052.57;;;969.43;;
4428;SDS011;2227;47.810;8.810;2024-03-22T13:37:52;1062.10;;;977.60;;
4428;SDS011;2227;47.810;8.810;2024-03-22T13:40:18;1050.78;;;966.72;;
4428;SDS011;2227;47.810;8.810;2024-03-22T13:42:44;1041.38;;;958.47;;
4428;SDS011;2227;47.810;8.810;2024-03-22T13:45:09;1042.75;;;959.35;;
4428;SDS011;2227;47.810;8.810;2024-03-22T13:47:35;1041.95;;;957.83;;
4428;SDS011;2227;47.810;8.810;2024-03-22T13:50:08;1045.20;;;960.40;;
4428;SDS011;2227;47.810;8.810;2024-03-22T13:52:34;1018.53;;;935.08;;
4428;SDS011;2227;47.810;8.810;2024-03-22T13:55:01;1016.03;;;932.63;;
4428;SDS011;2227;47.810;8.810;2024-03-22T13:57:27;1002.10;;;920.03;;
4428;SDS011;2227;47.810;8.810;2024-03-22T13:59:53;1037.28;;;955.08;;
4428;SDS011;2227;47.810;8.810;2024-03-22T14:02:19;1033.88;;;951.97;;
4428;SDS011;2227;47.810;8.810;2024-03-22T14:04:45;1035.72;;;953.72;;
4428;SDS011;2227;47.810;8.810;2024-03-22T14:07:11;1030.60;;;949.58;;
4428;SDS011;2227;47.810;8.810;2024-03-22T14:09:36;1041.00;;;960.20;;
4428;SDS011;2227;47.810;8.810;2024-03-22T14:12:02;1044.23;;;962.40;;
4428;SDS011;2227;47.810;8.810;2024-03-22T14:14:29;1040.50;;;958.80;;
4428;SDS011;2227;47.810;8.810;2024-03-22T14:16:54;1047.40;;;965.27;;
4428;SDS011;2227;47.810;8.810;2024-03-22T14:19:20;1043.47;;;961.17;;
4428;SDS011;2227;47.810;8.810;2024-03-22T14:21:46;1040.90;;;958.60;;
4428;SDS011;2227;47.810;8.810;2024-03-22T14:24:12;1043.37;;;961.23;;
4428;SDS011;2227;47.810;8.810;2024-03-22T14:26:38;1039.60;;;958.00;;
4428;SDS011;2227;47.810;8.810;2024-03-22T14:29:16;1039.15;;;957.15;;
4428;SDS011;2227;47.810;8.810;2024-03-22T14:31:44;1038.43;;;956.92;;
4428;SDS011;2227;47.810;8.810;2024-03-22T14:34:11;1039.55;;;957.75;;
4428;SDS011;2227;47.810;8.810;2024-03-22T14:36:36;1039.10;;;957.60;;
4428;SDS011;2227;47.810;8.810;2024-03-22T14:39:02;1041.30;;;959.42;;
4428;SDS011;2227;47.810;8.810;2024-03-22T14:41:31;1043.90;;;962.10;;
4428;SDS011;2227;47.810;8.810;2024-03-22T14:43:57;1038.13;;;957.40;;
4428;SDS011;2227;47.810;8.810;2024-03-22T14:46:23;1042.00;;;961.53;;
4428;SDS011;2227;47.810;8.810;2024-03-22T14:48:53;1048.10;;;967.83;;
4428;SDS011;2227;47.810;8.810;2024-03-22T14:51:20;1053.38;;;971.95;;
4428;SDS011;2227;47.810;8.810;2024-03-22T14:53:45;1049.13;;;967.53;;
4428;SDS011;2227;47.810;8.810;2024-03-22T14:56:11;1053.18;;;972.05;;
4428;SDS011;2227;47.810;8.810;2024-03-22T14:58:38;1049.38;;;968.95;;
4428;SDS011;2227;47.810;8.810;2024-03-22T15:01:04;1056.20;;;974.73;;
4428;SDS011;2227;47.810;8.810;2024-03-22T15:03:30;1052.43;;;971.55;;
4428;SDS011;2227;47.810;8.810;2024-03-22T15:05:57;1055.07;;;974.17;;
4428;SDS011;2227;47.810;8.810;2024-03-22T15:08:27;1047.30;;;967.67;;
4428;SDS011;2227;47.810;8.810;2024-03-22T15:10:56;1052.50;;;971.75;;
4428;SDS011;2227;47.810;8.810;2024-03-22T15:13:22;1052.03;;;971.03;;
4428;SDS011;2227;47.810;8.810;2024-03-22T15:18:20;1047.57;;;967.85;;
4428;SDS011;2227;47.810;8.810;2024-03-22T15:20:46;1054.22;;;974.42;;
4428;SDS011;2227;47.810;8.810;2024-03-22T15:23:13;1045.28;;;966.38;;
4428;SDS011;2227;47.810;8.810;2024-03-22T15:25:40;1048.47;;;969.58;;
4428;SDS011;2227;47.810;8.810;2024-03-22T15:28:09;1048.32;;;969.38;;
4428;SDS011;2227;47.810;8.810;2024-03-22T15:30:37;1045.85;;;966.70;;
4428;SDS011;2227;47.810;8.810;2024-03-22T15:33:03;1052.05;;;971.58;;
4428;SDS011;2227;47.810;8.810;2024-03-22T15:35:30;1051.28;;;969.67;;
4428;SDS011;2227;47.810;8.810;2024-03-22T15:37:56;1052.35;;;970.50;;
4428;SDS011;2227;47.810;8.810;2024-03-22T15:40:22;1050.88;;;968.72;;
4428;SDS011;2227;47.810;8.810;2024-03-22T15:42:49;1041.33;;;959.60;;
4428;SDS011;2227;47.810;8.810;2024-03-22T15:45:15;1041.70;;;960.28;;
4428;SDS011;2227;47.810;8.810;2024-03-22T15:47:41;1042.40;;;960.08;;
4428;SDS011;2227;47.810;8.810;2024-03-22T15:50:07;1002.30;;;920.53;;
4428;SDS011;2227;47.810;8.810;2024-03-22T15:52:34;994.67;;;913.17;;
4428;SDS011;2227;47.810;8.810;2024-03-22T15:55:00;991.22;;;909.60;;
4428;SDS011;2227;47.810;8.810;2024-03-22T15:57:27;993.17;;;910.78;;
4428;SDS011;2227;47.810;8.810;2024-03-22T15:59:53;986.50;;;904.25;;
4428;SDS011;2227;47.810;8.810;2024-03-22T16:02:19;987.08;;;904.67;;
4428;SDS011;2227;47.810;8.810;2024-03-22T16:04:47;995.42;;;912.15;;
4428;SDS011;2227;47.810;8.810;2024-03-22T16:07:14;982.30;;;900.10;;
4428;SDS011;2227;47.810;8.810;2024-03-22T16:09:40;983.80;;;900.80;;
4428;SDS011;2227;47.810;8.810;2024-03-22T16:12:06;990.97;;;907.80;;
4428;SDS011;2227;47.810;8.810;2024-03-22T16:14:32;987.53;;;904.40;;
4428;SDS011;2227;47.810;8.810;2024-03-22T16:16:58;986.60;;;904.57;;
4428;SDS011;2227;47.810;8.810;2024-03-22T16:19:24;985.60;;;904.33;;
4428;SDS011;2227;47.810;8.810;2024-03-22T16:21:50;981.55;;;900.85;;
4428;SDS011;2227;47.810;8.810;2024-03-22T16:24:16;983.13;;;902.42;;
4428;SDS011;2227;47.810;8.810;2024-03-22T16:26:45;977.80;;;897.60;;
4428;SDS011;2227;47.810;8.810;2024-03-22T16:29:11;980.45;;;899.72;;
4428;SDS011;2227;47.810;8.810;2024-03-22T16:31:37;976.37;;;896.07;;
4428;SDS011;2227;47.810;8.810;2024-03-22T16:34:04;980.73;;;900.53;;
4428;SDS011;2227;47.810;8.810;2024-03-22T16:36:30;980.53;;;899.57;;
4428;SDS011;2227;47.810;8.810;2024-03-22T16:38:57;974.15;;;894.05;;
4428;SDS011;2227;47.810;8.810;2024-03-22T16:41:23;977.75;;;896.95;;
4428;SDS011;2227;47.810;8.810;2024-03-22T16:43:49;982.47;;;901.33;;
4428;SDS011;2227;47.810;8.810;2024-03-22T16:46:14;986.97;;;904.57;;
4428;SDS011;2227;47.810;8.810;2024-03-22T16:48:40;976.33;;;894.37;;
4428;SDS011;2227;47.810;8.810;2024-03-22T16:51:06;983.43;;;900.97;;
4428;SDS011;2227;47.810;8.810;2024-03-22T16:53:32;975.00;;;893.30;;
4428;SDS011;2227;47.810;8.810;2024-03-22T16:55:58;972.40;;;890.90;;
4428;SDS011;2227;47.810;8.810;2024-03-22T16:58:24;971.35;;;890.05;;
4428;SDS011;2227;47.810;8.810;2024-03-22T17:00:51;976.80;;;894.30;;
4428;SDS011;2227;47.810;8.810;2024-03-22T17:03:18;974.85;;;892.85;;
4428;SDS011;2227;47.810;8.810;2024-03-22T17:05:43;977.90;;;895.05;;
4428;SDS011;2227;47.810;8.810;2024-03-22T17:08:09;981.28;;;898.45;;
4428;SDS011;2227;47.810;8.810;2024-03-22T17:10:39;973.93;;;891.90;;
4428;SDS011;2227;47.810;8.810;2024-03-22T17:13:08;972.00;;;890.33;;
4428;SDS011;2227;47.810;8.810;2024-03-22T17:15:34;974.90;;;892.67;;
4428;SDS011;2227;47.810;8.810;2024-03-22T17:18:03;970.15;;;888.15;;
4428;SDS011;2227;47.810;8.810;2024-03-22T17:20:29;964.97;;;882.78;;
4428;SDS011;2227;47.810;8.810;2024-03-22T17:22:56;970.58;;;888.15;;
4428;SDS011;2227;47.810;8.810;2024-03-22T17:25:23;975.15;;;892.55;;
4428;SDS011;2227;47.810;8.810;2024-03-22T17:27:49;949.45;;;867.70;;
4428;SDS011;2227;47.810;8.810;2024-03-22T17:30:15;961.63;;;879.38;;
4428;SDS011;2227;47.810;8.810;2024-03-22T17:32:41;950.78;;;868.45;;
4428;SDS011;2227;47.810;8.810;2024-03-22T17:35:07;943.53;;;861.03;;
4428;SDS011;2227;47.810;8.810;2024-03-22T17:37:35;934.80;;;852.05;;
4428;SDS011;2227;47.810;8.810;2024-03-22T17:40:01;941.47;;;858.38;;
4428;SDS011;2227;47.810;8.810;2024-03-22T17:42:28;933.80;;;850.78;;
4428;SDS011;2227;47.810;8.810;2024-03-22T17:44:54;933.58;;;850.53;;
4428;SDS011;2227;47.810;8.810;2024-03-22T17:47:19;927.88;;;844.25;;
4428;SDS011;2227;47.810;8.810;2024-03-22T17:49:46;919.42;;;836.03;;
4428;SDS011;2227;47.810;8.810;2024-03-22T17:52:13;921.83;;;838.38;;
4428;SDS011;2227;47.810;8.810;2024-03-22T17:54:38;915.67;;;831.97;;
4428;SDS011;2227;47.810;8.810;2024-03-22T17:57:05;915.33;;;831.03;;
4428;SDS011;2227;47.810;8.810;2024-03-22T17:59:31;912.33;;;827.03;;
4428;SDS011;2227;47.810;8.810;2024-03-22T18:01:57;924.90;;;838.75;;
4428;SDS011;2227;47.810;8.810;2024-03-22T18:04:23;923.87;;;838.00;;
4428;SDS011;2227;47.810;8.810;2024-03-22T18:06:49;917.00;;;831.65;;
4428;SDS011;2227;47.810;8.810;2024-03-22T18:09:15;915.30;;;829.42;;
4428;SDS011;2227;47.810;8.810;2024-03-22T18:11:41;913.20;;;827.10;;
4428;SDS011;2227;47.810;8.810;2024-03-22T18:14:07;883.78;;;798.90;;
4428;SDS011;2227;47.810;8.810;2024-03-22T18:16:33;883.75;;;798.45;;
4428;SDS011;2227;47.810;8.810;2024-03-22T18:19:02;886.60;;;801.15;;
4428;SDS011;2227;47.810;8.810;2024-03-22T18:21:29;884.05;;;798.65;;
4428;SDS011;2227;47.810;8.810;2024-03-22T18:23:55;881.75;;;796.20;;
4428;SDS011;2227;47.810;8.810;2024-03-22T18:26:21;879.42;;;794.33;;
4428;SDS011;2227;47.810;8.810;2024-03-22T18:28:47;874.33;;;788.92;;
4428;SDS011;2227;47.810;8.810;2024-03-22T18:31:13;874.28;;;788.88;;
4428;SDS011;2227;47.810;8.810;2024-03-22T18:33:39;878.80;;;793.33;;
4428;SDS011;2227;47.810;8.810;2024-03-22T18:36:05;872.78;;;787.10;;
4428;SDS011;2227;47.810;8.810;2024-03-22T18:38:31;870.40;;;784.80;;
4428;SDS011;2227;47.810;8.810;2024-03-22T18:41:07;870.10;;;784.33;;
4428;SDS011;2227;47.810;8.810;2024-03-22T18:43:33;867.60;;;781.63;;
4428;SDS011;2227;47.810;8.810;2024-03-22T18:46:00;867.72;;;781.88;;
4428;SDS011;2227;47.810;8.810;2024-03-22T18:48:26;867.53;;;781.47;;
4428;SDS011;2227;47.810;8.810;2024-03-22T18:50:52;856.90;;;771.10;;
4428;SDS011;2227;47.810;8.810;2024-03-22T18:53:18;865.50;;;779.70;;
4428;SDS011;2227;47.810;8.810;2024-03-22T18:55:44;868.72;;;783.33;;
4428;SDS011;2227;47.810;8.810;2024-03-22T18:58:11;865.78;;;780.58;;
4428;SDS011;2227;47.810;8.810;2024-03-22T19:00:37;861.10;;;775.90;;
4428;SDS011;2227;47.810;8.810;2024-03-22T19:03:04;872.25;;;786.70;;